sensor_id;sensor_type;location;lat;lon;timestamp;P1;durP1;ratioP1;P2;durP2;ratioP2
17235;SDS011;8734;59.272;17.780;2023-06-22T00:00:35;10.83;;;6.90;;
17235;SDS011;8734;59.272;17.780;2023-06-22T00:03:07;11.10;;;7.23;;
17235;SDS011;8734;59.272;17.780;2023-06-22T00:05:35;8.53;;;7.20;;
17235;SDS011;8734;59.272;17.780;2023-06-22T00:08:04;8.80;;;7.13;;
17235;SDS011;8734;59.272;17.780;2023-06-22T00:10:33;7.57;;;6.30;;
17235;SDS011;8734;59.272;17.780;2023-06-22T00:13:01;9.60;;;7.03;;
17235;SDS011;8734;59.272;17.780;2023-06-22T00:15:29;9.60;;;7.00;;
17235;SDS011;8734;59.272;17.780;2023-06-22T00:17:58;15.43;;;7.63;;
17235;SDS011;8734;59.272;17.780;2023-06-22T00:20:28;12.17;;;7.90;;
17235;SDS011;8734;59.272;17.780;2023-06-22T00:22:57;8.63;;;6.93;;
17235;SDS011;8734;59.272;17.780;2023-06-22T00:25:26;13.43;;;7.33;;
17235;SDS011;8734;59.272;17.780;2023-06-22T00:27:55;10.07;;;7.37;;
17235;SDS011;8734;59.272;17.780;2023-06-22T00:30:23;11.23;;;7.10;;
17235;SDS011;8734;59.272;17.780;2023-06-22T00:32:52;9.37;;;6.80;;
17235;SDS011;8734;59.272;17.780;2023-06-22T00:35:21;10.03;;;7.00;;
17235;SDS011;8734;59.272;17.780;2023-06-22T00:37:50;9.00;;;7.63;;
17235;SDS011;8734;59.272;17.780;2023-06-22T00:40:27;15.43;;;7.97;;
17235;SDS011;8734;59.272;17.780;2023-06-22T00:42:56;11.17;;;7.83;;
17235;SDS011;8734;59.272;17.780;2023-06-22T00:45:24;10.33;;;7.63;;
17235;SDS011;8734;59.272;17.780;2023-06-22T00:47:53;15.87;;;8.30;;
17235;SDS011;8734;59.272;17.780;2023-06-22T00:50:25;10.47;;;7.67;;
17235;SDS011;8734;59.272;17.780;2023-06-22T00:52:57;12.30;;;7.87;;
17235;SDS011;8734;59.272;17.780;2023-06-22T00:55:29;11.10;;;8.27;;
17235;SDS011;8734;59.272;17.780;2023-06-22T00:57:57;13.07;;;8.73;;
17235;SDS011;8734;59.272;17.780;2023-06-22T01:00:26;12.07;;;7.73;;
17235;SDS011;8734;59.272;17.780;2023-06-22T01:02:54;12.37;;;8.67;;
17235;SDS011;8734;59.272;17.780;2023-06-22T01:05:23;10.57;;;8.13;;
17235;SDS011;8734;59.272;17.780;2023-06-22T01:07:55;10.77;;;8.67;;
17235;SDS011;8734;59.272;17.780;2023-06-22T01:10:36;13.83;;;8.90;;
17235;SDS011;8734;59.272;17.780;2023-06-22T01:13:11;13.60;;;8.90;;
17235;SDS011;8734;59.272;17.780;2023-06-22T01:15:46;15.90;;;9.47;;
17235;SDS011;8734;59.272;17.780;2023-06-22T01:18:18;12.27;;;9.03;;
17235;SDS011;8734;59.272;17.780;2023-06-22T01:20:52;12.73;;;9.40;;
17235;SDS011;8734;59.272;17.780;2023-06-22T01:23:28;17.97;;;10.03;;
17235;SDS011;8734;59.272;17.780;2023-06-22T01:26:05;14.43;;;10.00;;
17235;SDS011;8734;59.272;17.780;2023-06-22T01:28:43;13.70;;;9.80;;
17235;SDS011;8734;59.272;17.780;2023-06-22T01:31:14;13.00;;;9.00;;
17235;SDS011;8734;59.272;17.780;2023-06-22T01:33:45;12.70;;;9.80;;
17235;SDS011;8734;59.272;17.780;2023-06-22T01:36:17;17.07;;;10.23;;
17235;SDS011;8734;59.272;17.780;2023-06-22T01:38:45;13.37;;;9.83;;
17235;SDS011;8734;59.272;17.780;2023-06-22T01:41:15;16.30;;;9.80;;
17235;SDS011;8734;59.272;17.780;2023-06-22T01:43:46;13.07;;;9.50;;
17235;SDS011;8734;59.272;17.780;2023-06-22T01:46:15;15.43;;;9.63;;
17235;SDS011;8734;59.272;17.780;2023-06-22T01:48:46;19.53;;;9.43;;
17235;SDS011;8734;59.272;17.780;2023-06-22T01:51:15;17.03;;;10.27;;
17235;SDS011;8734;59.272;17.780;2023-06-22T01:53:43;12.47;;;9.10;;
17235;SDS011;8734;59.272;17.780;2023-06-22T01:56:12;16.53;;;9.97;;
17235;SDS011;8734;59.272;17.780;2023-06-22T01:58:42;14.37;;;10.30;;
17235;SDS011;8734;59.272;17.780;2023-06-22T02:01:19;11.83;;;9.53;;
17235;SDS011;8734;59.272;17.780;2023-06-22T02:03:53;14.83;;;10.57;;
17235;SDS011;8734;59.272;17.780;2023-06-22T02:06:31;13.50;;;9.57;;
17235;SDS011;8734;59.272;17.780;2023-06-22T02:09:05;14.97;;;9.80;;
17235;SDS011;8734;59.272;17.780;2023-06-22T02:11:36;11.40;;;9.30;;
17235;SDS011;8734;59.272;17.780;2023-06-22T02:14:09;14.50;;;9.77;;
17235;SDS011;8734;59.272;17.780;2023-06-22T02:16:38;11.93;;;8.60;;
17235;SDS011;8734;59.272;17.780;2023-06-22T02:19:08;13.47;;;9.30;;
17235;SDS011;8734;59.272;17.780;2023-06-22T02:21:36;12.13;;;9.40;;
17235;SDS011;8734;59.272;17.780;2023-06-22T02:24:04;13.33;;;9.57;;
17235;SDS011;8734;59.272;17.780;2023-06-22T02:26:33;17.53;;;9.43;;
17235;SDS011;8734;59.272;17.780;2023-06-22T02:29:01;12.87;;;9.57;;
17235;SDS011;8734;59.272;17.780;2023-06-22T02:31:31;12.70;;;9.50;;
17235;SDS011;8734;59.272;17.780;2023-06-22T02:33:59;13.87;;;10.13;;
17235;SDS011;8734;59.272;17.780;2023-06-22T02:36:28;13.60;;;10.30;;
17235;SDS011;8734;59.272;17.780;2023-06-22T02:38:57;12.47;;;9.77;;
17235;SDS011;8734;59.272;17.780;2023-06-22T02:41:27;14.33;;;9.47;;
17235;SDS011;8734;59.272;17.780;2023-06-22T02:43:56;13.87;;;10.17;;
17235;SDS011;8734;59.272;17.780;2023-06-22T02:46:24;19.27;;;10.40;;
17235;SDS011;8734;59.272;17.780;2023-06-22T02:48:54;14.17;;;9.90;;
17235;SDS011;8734;59.272;17.780;2023-06-22T02:51:22;14.23;;;10.50;;
17235;SDS011;8734;59.272;17.780;2023-06-22T02:53:51;13.90;;;10.03;;
17235;SDS011;8734;59.272;17.780;2023-06-22T02:56:24;12.93;;;10.37;;
17235;SDS011;8734;59.272;17.780;2023-06-22T02:58:52;14.47;;;10.27;;
17235;SDS011;8734;59.272;17.780;2023-06-22T03:01:21;14.30;;;10.47;;
17235;SDS011;8734;59.272;17.780;2023-06-22T03:03:50;15.00;;;10.23;;
17235;SDS011;8734;59.272;17.780;2023-06-22T03:06:21;13.23;;;10.30;;
17235;SDS011;8734;59.272;17.780;2023-06-22T03:08:50;16.10;;;10.63;;
17235;SDS011;8734;59.272;17.780;2023-06-22T03:11:18;13.87;;;10.00;;
17235;SDS011;8734;59.272;17.780;2023-06-22T03:13:47;15.47;;;9.73;;
17235;SDS011;8734;59.272;17.780;2023-06-22T03:16:15;12.57;;;9.70;;
17235;SDS011;8734;59.272;17.780;2023-06-22T03:18:43;19.50;;;11.03;;
17235;SDS011;8734;59.272;17.780;2023-06-22T03:21:12;14.57;;;10.10;;
17235;SDS011;8734;59.272;17.780;2023-06-22T03:23:43;11.67;;;9.40;;
17235;SDS011;8734;59.272;17.780;2023-06-22T03:26:11;11.67;;;9.37;;
17235;SDS011;8734;59.272;17.780;2023-06-22T03:28:40;11.67;;;9.97;;
17235;SDS011;8734;59.272;17.780;2023-06-22T03:31:08;10.63;;;8.47;;
17235;SDS011;8734;59.272;17.780;2023-06-22T03:33:36;11.73;;;9.43;;
17235;SDS011;8734;59.272;17.780;2023-06-22T03:36:05;15.67;;;9.70;;
17235;SDS011;8734;59.272;17.780;2023-06-22T03:38:33;11.83;;;9.07;;
17235;SDS011;8734;59.272;17.780;2023-06-22T03:41:03;12.30;;;9.53;;
17235;SDS011;8734;59.272;17.780;2023-06-22T03:43:31;12.43;;;9.30;;
17235;SDS011;8734;59.272;17.780;2023-06-22T03:46:00;11.20;;;8.90;;
17235;SDS011;8734;59.272;17.780;2023-06-22T03:48:28;10.03;;;8.50;;
17235;SDS011;8734;59.272;17.780;2023-06-22T03:50:57;13.23;;;9.30;;
17235;SDS011;8734;59.272;17.780;2023-06-22T03:53:26;12.80;;;8.80;;
17235;SDS011;8734;59.272;17.780;2023-06-22T03:55:55;11.70;;;7.90;;
17235;SDS011;8734;59.272;17.780;2023-06-22T03:58:25;11.53;;;8.23;;
17235;SDS011;8734;59.272;17.780;2023-06-22T04:00:59;11.10;;;8.40;;
17235;SDS011;8734;59.272;17.780;2023-06-22T04:03:28;8.90;;;6.97;;
17235;SDS011;8734;59.272;17.780;2023-06-22T04:05:56;9.17;;;7.37;;
17235;SDS011;8734;59.272;17.780;2023-06-22T04:08:24;8.90;;;7.17;;
17235;SDS011;8734;59.272;17.780;2023-06-22T04:10:53;11.23;;;7.20;;
17235;SDS011;8734;59.272;17.780;2023-06-22T04:13:21;11.47;;;7.20;;
17235;SDS011;8734;59.272;17.780;2023-06-22T04:15:51;8.17;;;7.10;;
17235;SDS011;8734;59.272;17.780;2023-06-22T04:18:19;9.20;;;7.10;;
17235;SDS011;8734;59.272;17.780;2023-06-22T04:20:48;8.23;;;6.60;;
17235;SDS011;8734;59.272;17.780;2023-06-22T04:23:16;9.57;;;7.27;;
17235;SDS011;8734;59.272;17.780;2023-06-22T04:25:44;10.80;;;7.77;;
17235;SDS011;8734;59.272;17.780;2023-06-22T04:28:13;8.90;;;6.87;;
17235;SDS011;8734;59.272;17.780;2023-06-22T04:30:41;11.43;;;7.67;;
17235;SDS011;8734;59.272;17.780;2023-06-22T04:33:14;11.20;;;6.90;;
17235;SDS011;8734;59.272;17.780;2023-06-22T04:35:44;8.87;;;6.90;;
17235;SDS011;8734;59.272;17.780;2023-06-22T04:38:13;13.33;;;7.30;;
17235;SDS011;8734;59.272;17.780;2023-06-22T04:40:41;11.10;;;7.37;;
17235;SDS011;8734;59.272;17.780;2023-06-22T04:43:09;9.60;;;7.13;;
17235;SDS011;8734;59.272;17.780;2023-06-22T04:45:38;11.80;;;7.00;;
17235;SDS011;8734;59.272;17.780;2023-06-22T04:48:06;11.47;;;6.77;;
17235;SDS011;8734;59.272;17.780;2023-06-22T04:50:36;9.40;;;6.53;;
17235;SDS011;8734;59.272;17.780;2023-06-22T04:53:05;8.80;;;6.37;;
17235;SDS011;8734;59.272;17.780;2023-06-22T04:55:34;9.87;;;7.03;;
17235;SDS011;8734;59.272;17.780;2023-06-22T04:58:04;10.13;;;7.17;;
17235;SDS011;8734;59.272;17.780;2023-06-22T05:00:32;8.10;;;6.17;;
17235;SDS011;8734;59.272;17.780;2023-06-22T05:03:03;14.13;;;6.43;;
17235;SDS011;8734;59.272;17.780;2023-06-22T05:05:46;10.17;;;6.70;;
17235;SDS011;8734;59.272;17.780;2023-06-22T05:08:15;8.40;;;6.63;;
17235;SDS011;8734;59.272;17.780;2023-06-22T05:10:44;10.83;;;6.67;;
17235;SDS011;8734;59.272;17.780;2023-06-22T05:13:30;9.30;;;6.50;;
17235;SDS011;8734;59.272;17.780;2023-06-22T05:15:59;9.67;;;6.60;;
17235;SDS011;8734;59.272;17.780;2023-06-22T05:18:29;10.87;;;7.00;;
17235;SDS011;8734;59.272;17.780;2023-06-22T05:21:00;8.23;;;6.33;;
17235;SDS011;8734;59.272;17.780;2023-06-22T05:23:29;11.27;;;7.20;;
17235;SDS011;8734;59.272;17.780;2023-06-22T05:25:57;8.27;;;6.27;;
17235;SDS011;8734;59.272;17.780;2023-06-22T05:28:26;7.50;;;6.10;;
17235;SDS011;8734;59.272;17.780;2023-06-22T05:30:55;8.10;;;6.50;;
17235;SDS011;8734;59.272;17.780;2023-06-22T05:33:23;8.60;;;6.00;;
17235;SDS011;8734;59.272;17.780;2023-06-22T05:35:51;9.57;;;6.30;;
17235;SDS011;8734;59.272;17.780;2023-06-22T05:38:21;9.33;;;5.50;;
17235;SDS011;8734;59.272;17.780;2023-06-22T05:40:49;8.83;;;6.00;;
17235;SDS011;8734;59.272;17.780;2023-06-22T05:43:18;8.07;;;6.13;;
17235;SDS011;8734;59.272;17.780;2023-06-22T05:45:46;6.53;;;4.93;;
17235;SDS011;8734;59.272;17.780;2023-06-22T05:48:14;8.20;;;6.00;;
17235;SDS011;8734;59.272;17.780;2023-06-22T05:50:43;7.87;;;5.10;;
17235;SDS011;8734;59.272;17.780;2023-06-22T05:53:11;8.03;;;5.37;;
17235;SDS011;8734;59.272;17.780;2023-06-22T05:55:41;7.77;;;5.03;;
17235;SDS011;8734;59.272;17.780;2023-06-22T05:58:09;7.00;;;5.10;;
17235;SDS011;8734;59.272;17.780;2023-06-22T06:00:39;7.53;;;4.60;;
17235;SDS011;8734;59.272;17.780;2023-06-22T06:03:09;11.33;;;4.60;;
17235;SDS011;8734;59.272;17.780;2023-06-22T06:05:41;7.50;;;4.73;;
17235;SDS011;8734;59.272;17.780;2023-06-22T06:08:09;7.73;;;4.73;;
17235;SDS011;8734;59.272;17.780;2023-06-22T06:10:38;7.03;;;4.53;;
17235;SDS011;8734;59.272;17.780;2023-06-22T06:13:08;10.03;;;4.83;;
17235;SDS011;8734;59.272;17.780;2023-06-22T06:15:37;8.67;;;4.70;;
17235;SDS011;8734;59.272;17.780;2023-06-22T06:18:05;8.27;;;4.27;;
17235;SDS011;8734;59.272;17.780;2023-06-22T06:20:33;7.87;;;4.07;;
17235;SDS011;8734;59.272;17.780;2023-06-22T06:23:02;10.33;;;4.33;;
17235;SDS011;8734;59.272;17.780;2023-06-22T06:25:30;8.17;;;4.63;;
17235;SDS011;8734;59.272;17.780;2023-06-22T06:28:00;7.37;;;4.43;;
17235;SDS011;8734;59.272;17.780;2023-06-22T06:30:28;9.20;;;4.23;;
17235;SDS011;8734;59.272;17.780;2023-06-22T06:32:57;7.93;;;4.33;;
17235;SDS011;8734;59.272;17.780;2023-06-22T06:35:26;8.30;;;4.20;;
17235;SDS011;8734;59.272;17.780;2023-06-22T06:37:55;6.93;;;4.03;;
17235;SDS011;8734;59.272;17.780;2023-06-22T06:40:23;6.23;;;3.77;;
17235;SDS011;8734;59.272;17.780;2023-06-22T06:42:52;6.40;;;4.17;;
17235;SDS011;8734;59.272;17.780;2023-06-22T06:45:22;8.37;;;3.70;;
17235;SDS011;8734;59.272;17.780;2023-06-22T06:47:51;7.53;;;3.87;;
17235;SDS011;8734;59.272;17.780;2023-06-22T06:50:20;8.10;;;4.17;;
17235;SDS011;8734;59.272;17.780;2023-06-22T06:52:48;10.70;;;4.10;;
17235;SDS011;8734;59.272;17.780;2023-06-22T06:55:17;5.50;;;3.57;;
17235;SDS011;8734;59.272;17.780;2023-06-22T06:57:46;4.83;;;3.60;;
17235;SDS011;8734;59.272;17.780;2023-06-22T07:00:18;7.43;;;3.80;;
17235;SDS011;8734;59.272;17.780;2023-06-22T07:02:48;8.27;;;4.03;;
17235;SDS011;8734;59.272;17.780;2023-06-22T07:05:16;5.20;;;3.23;;
17235;SDS011;8734;59.272;17.780;2023-06-22T07:07:45;9.27;;;4.10;;
17235;SDS011;8734;59.272;17.780;2023-06-22T07:10:13;6.57;;;4.10;;
17235;SDS011;8734;59.272;17.780;2023-06-22T07:12:42;5.33;;;3.77;;
17235;SDS011;8734;59.272;17.780;2023-06-22T07:15:11;8.43;;;4.03;;
17235;SDS011;8734;59.272;17.780;2023-06-22T07:17:40;8.07;;;4.20;;
17235;SDS011;8734;59.272;17.780;2023-06-22T07:20:10;6.17;;;3.87;;
17235;SDS011;8734;59.272;17.780;2023-06-22T07:22:39;9.90;;;4.20;;
17235;SDS011;8734;59.272;17.780;2023-06-22T07:25:09;10.13;;;4.20;;
17235;SDS011;8734;59.272;17.780;2023-06-22T07:27:43;8.40;;;4.23;;
17235;SDS011;8734;59.272;17.780;2023-06-22T07:30:13;7.53;;;4.00;;
17235;SDS011;8734;59.272;17.780;2023-06-22T07:32:41;6.83;;;4.00;;
17235;SDS011;8734;59.272;17.780;2023-06-22T07:35:11;8.77;;;4.23;;
17235;SDS011;8734;59.272;17.780;2023-06-22T07:37:39;6.37;;;4.23;;
17235;SDS011;8734;59.272;17.780;2023-06-22T07:40:08;9.30;;;4.07;;
17235;SDS011;8734;59.272;17.780;2023-06-22T07:42:37;7.10;;;3.67;;
17235;SDS011;8734;59.272;17.780;2023-06-22T07:45:06;6.90;;;4.20;;
17235;SDS011;8734;59.272;17.780;2023-06-22T07:47:35;8.37;;;3.67;;
17235;SDS011;8734;59.272;17.780;2023-06-22T07:50:04;8.10;;;4.40;;
17235;SDS011;8734;59.272;17.780;2023-06-22T07:52:35;5.50;;;3.60;;
17235;SDS011;8734;59.272;17.780;2023-06-22T07:55:03;5.50;;;3.33;;
17235;SDS011;8734;59.272;17.780;2023-06-22T07:57:32;8.10;;;3.28;;
17235;SDS011;8734;59.272;17.780;2023-06-22T08:00:01;6.22;;;3.50;;
17235;SDS011;8734;59.272;17.780;2023-06-22T08:02:37;11.70;;;3.70;;
17235;SDS011;8734;59.272;17.780;2023-06-22T08:05:07;7.63;;;3.28;;
17235;SDS011;8734;59.272;17.780;2023-06-22T08:07:48;6.25;;;3.88;;
17235;SDS011;8734;59.272;17.780;2023-06-22T08:10:18;5.97;;;3.45;;
17235;SDS011;8734;59.272;17.780;2023-06-22T08:12:47;11.25;;;4.22;;
17235;SDS011;8734;59.272;17.780;2023-06-22T08:15:16;6.78;;;3.58;;
17235;SDS011;8734;59.272;17.780;2023-06-22T08:17:44;13.27;;;3.65;;
17235;SDS011;8734;59.272;17.780;2023-06-22T08:20:13;6.60;;;3.10;;
17235;SDS011;8734;59.272;17.780;2023-06-22T08:22:42;6.30;;;3.60;;
17235;SDS011;8734;59.272;17.780;2023-06-22T08:25:12;6.22;;;3.47;;
17235;SDS011;8734;59.272;17.780;2023-06-22T08:27:40;7.40;;;3.50;;
17235;SDS011;8734;59.272;17.780;2023-06-22T08:30:13;4.82;;;3.25;;
17235;SDS011;8734;59.272;17.780;2023-06-22T08:32:42;10.05;;;3.28;;
17235;SDS011;8734;59.272;17.780;2023-06-22T08:35:10;7.57;;;2.90;;
17235;SDS011;8734;59.272;17.780;2023-06-22T08:37:39;3.53;;;3.00;;
17235;SDS011;8734;59.272;17.780;2023-06-22T08:40:08;4.97;;;3.40;;
17235;SDS011;8734;59.272;17.780;2023-06-22T08:42:39;9.77;;;3.30;;
17235;SDS011;8734;59.272;17.780;2023-06-22T08:45:09;5.68;;;3.03;;
17235;SDS011;8734;59.272;17.780;2023-06-22T08:47:38;7.57;;;3.10;;
17235;SDS011;8734;59.272;17.780;2023-06-22T08:50:08;7.43;;;3.15;;
17235;SDS011;8734;59.272;17.780;2023-06-22T08:52:37;14.82;;;3.80;;
17235;SDS011;8734;59.272;17.780;2023-06-22T08:55:10;5.45;;;2.78;;
17235;SDS011;8734;59.272;17.780;2023-06-22T08:57:42;6.10;;;3.67;;
17235;SDS011;8734;59.272;17.780;2023-06-22T09:00:10;11.90;;;3.25;;
17235;SDS011;8734;59.272;17.780;2023-06-22T09:02:44;8.40;;;3.40;;
17235;SDS011;8734;59.272;17.780;2023-06-22T09:05:12;11.20;;;3.58;;
17235;SDS011;8734;59.272;17.780;2023-06-22T09:07:42;6.85;;;3.08;;
17235;SDS011;8734;59.272;17.780;2023-06-22T09:10:10;6.28;;;3.15;;
17235;SDS011;8734;59.272;17.780;2023-06-22T09:12:39;6.72;;;3.08;;
17235;SDS011;8734;59.272;17.780;2023-06-22T09:15:10;5.78;;;3.00;;
17235;SDS011;8734;59.272;17.780;2023-06-22T09:17:44;5.72;;;3.00;;
17235;SDS011;8734;59.272;17.780;2023-06-22T09:20:13;8.30;;;2.88;;
17235;SDS011;8734;59.272;17.780;2023-06-22T09:22:42;6.72;;;3.33;;
17235;SDS011;8734;59.272;17.780;2023-06-22T09:25:10;10.18;;;3.55;;
17235;SDS011;8734;59.272;17.780;2023-06-22T09:27:39;7.53;;;2.97;;
17235;SDS011;8734;59.272;17.780;2023-06-22T09:30:07;9.75;;;3.58;;
17235;SDS011;8734;59.272;17.780;2023-06-22T09:32:38;7.85;;;3.00;;
17235;SDS011;8734;59.272;17.780;2023-06-22T09:35:07;3.67;;;2.47;;
17235;SDS011;8734;59.272;17.780;2023-06-22T09:37:43;5.70;;;3.00;;
17235;SDS011;8734;59.272;17.780;2023-06-22T09:40:11;2.65;;;2.25;;
17235;SDS011;8734;59.272;17.780;2023-06-22T09:42:43;5.28;;;2.92;;
17235;SDS011;8734;59.272;17.780;2023-06-22T09:45:13;7.03;;;2.63;;
17235;SDS011;8734;59.272;17.780;2023-06-22T09:47:41;7.35;;;2.20;;
17235;SDS011;8734;59.272;17.780;2023-06-22T09:50:10;3.90;;;2.63;;
17235;SDS011;8734;59.272;17.780;2023-06-22T09:52:38;6.55;;;2.53;;
17235;SDS011;8734;59.272;17.780;2023-06-22T09:55:14;5.57;;;2.47;;
17235;SDS011;8734;59.272;17.780;2023-06-22T09:57:43;3.90;;;2.28;;
17235;SDS011;8734;59.272;17.780;2023-06-22T10:00:13;10.45;;;2.75;;
17235;SDS011;8734;59.272;17.780;2023-06-22T10:02:43;5.22;;;2.50;;
17235;SDS011;8734;59.272;17.780;2023-06-22T10:05:11;5.25;;;2.60;;
17235;SDS011;8734;59.272;17.780;2023-06-22T10:07:40;6.05;;;2.38;;
17235;SDS011;8734;59.272;17.780;2023-06-22T10:10:11;5.63;;;2.60;;
17235;SDS011;8734;59.272;17.780;2023-06-22T10:12:41;7.20;;;2.22;;
17235;SDS011;8734;59.272;17.780;2023-06-22T10:15:10;4.57;;;2.00;;
17235;SDS011;8734;59.272;17.780;2023-06-22T10:17:41;6.03;;;2.33;;
17235;SDS011;8734;59.272;17.780;2023-06-22T10:20:09;12.45;;;2.30;;
17235;SDS011;8734;59.272;17.780;2023-06-22T10:22:39;5.00;;;1.92;;
17235;SDS011;8734;59.272;17.780;2023-06-22T10:25:08;5.43;;;2.22;;
17235;SDS011;8734;59.272;17.780;2023-06-22T10:27:37;3.80;;;2.28;;
17235;SDS011;8734;59.272;17.780;2023-06-22T10:30:07;4.47;;;2.15;;
17235;SDS011;8734;59.272;17.780;2023-06-22T10:32:41;5.82;;;2.15;;
17235;SDS011;8734;59.272;17.780;2023-06-22T10:35:10;6.28;;;2.47;;
17235;SDS011;8734;59.272;17.780;2023-06-22T10:37:40;4.63;;;2.22;;
17235;SDS011;8734;59.272;17.780;2023-06-22T10:40:10;5.22;;;2.28;;
17235;SDS011;8734;59.272;17.780;2023-06-22T10:42:39;5.20;;;2.03;;
17235;SDS011;8734;59.272;17.780;2023-06-22T10:45:08;6.90;;;2.10;;
17235;SDS011;8734;59.272;17.780;2023-06-22T10:47:37;2.58;;;1.80;;
17235;SDS011;8734;59.272;17.780;2023-06-22T10:50:07;3.20;;;1.98;;
17235;SDS011;8734;59.272;17.780;2023-06-22T10:52:36;8.60;;;2.63;;
17235;SDS011;8734;59.272;17.780;2023-06-22T10:55:04;5.45;;;2.00;;
17235;SDS011;8734;59.272;17.780;2023-06-22T10:57:33;5.35;;;2.17;;
17235;SDS011;8734;59.272;17.780;2023-06-22T11:00:03;3.00;;;1.92;;
17235;SDS011;8734;59.272;17.780;2023-06-22T11:02:35;3.25;;;2.00;;
17235;SDS011;8734;59.272;17.780;2023-06-22T11:05:04;3.50;;;1.77;;
17235;SDS011;8734;59.272;17.780;2023-06-22T11:07:34;6.13;;;1.83;;
17235;SDS011;8734;59.272;17.780;2023-06-22T11:10:03;3.00;;;1.92;;
17235;SDS011;8734;59.272;17.780;2023-06-22T11:12:32;3.65;;;1.98;;
17235;SDS011;8734;59.272;17.780;2023-06-22T11:15:00;4.03;;;1.80;;
17235;SDS011;8734;59.272;17.780;2023-06-22T11:17:28;6.25;;;1.95;;
17235;SDS011;8734;59.272;17.780;2023-06-22T11:19:57;6.80;;;1.75;;
17235;SDS011;8734;59.272;17.780;2023-06-22T11:22:26;3.92;;;2.22;;
17235;SDS011;8734;59.272;17.780;2023-06-22T11:24:57;3.15;;;1.83;;
17235;SDS011;8734;59.272;17.780;2023-06-22T11:27:26;4.55;;;1.63;;
17235;SDS011;8734;59.272;17.780;2023-06-22T11:29:54;6.47;;;1.90;;
17235;SDS011;8734;59.272;17.780;2023-06-22T11:32:22;3.53;;;1.67;;
17235;SDS011;8734;59.272;17.780;2023-06-22T11:34:51;3.63;;;2.00;;
17235;SDS011;8734;59.272;17.780;2023-06-22T11:37:19;5.00;;;1.98;;
17235;SDS011;8734;59.272;17.780;2023-06-22T11:39:48;3.13;;;1.50;;
17235;SDS011;8734;59.272;17.780;2023-06-22T11:42:33;2.92;;;1.67;;
17235;SDS011;8734;59.272;17.780;2023-06-22T11:45:01;7.63;;;1.50;;
17235;SDS011;8734;59.272;17.780;2023-06-22T11:47:32;4.18;;;1.88;;
17235;SDS011;8734;59.272;17.780;2023-06-22T11:50:00;7.13;;;1.65;;
17235;SDS011;8734;59.272;17.780;2023-06-22T11:52:29;4.35;;;1.92;;
17235;SDS011;8734;59.272;17.780;2023-06-22T11:54:58;5.43;;;2.05;;
17235;SDS011;8734;59.272;17.780;2023-06-22T11:57:29;3.60;;;1.50;;
17235;SDS011;8734;59.272;17.780;2023-06-22T11:59:58;2.60;;;1.63;;
17235;SDS011;8734;59.272;17.780;2023-06-22T12:02:27;4.35;;;2.22;;
17235;SDS011;8734;59.272;17.780;2023-06-22T12:04:55;4.20;;;1.88;;
17235;SDS011;8734;59.272;17.780;2023-06-22T12:07:24;3.03;;;1.60;;
17235;SDS011;8734;59.272;17.780;2023-06-22T12:09:53;2.42;;;1.95;;
17235;SDS011;8734;59.272;17.780;2023-06-22T12:12:21;3.83;;;1.77;;
17235;SDS011;8734;59.272;17.780;2023-06-22T12:14:49;3.13;;;1.95;;
17235;SDS011;8734;59.272;17.780;2023-06-22T12:17:19;3.25;;;2.03;;
17235;SDS011;8734;59.272;17.780;2023-06-22T12:19:47;5.70;;;2.05;;
17235;SDS011;8734;59.272;17.780;2023-06-22T12:22:16;4.40;;;1.80;;
17235;SDS011;8734;59.272;17.780;2023-06-22T12:24:44;3.88;;;1.67;;
17235;SDS011;8734;59.272;17.780;2023-06-22T12:27:13;3.22;;;1.83;;
17235;SDS011;8734;59.272;17.780;2023-06-22T12:29:45;4.60;;;1.80;;
17235;SDS011;8734;59.272;17.780;2023-06-22T12:32:14;3.95;;;2.22;;
17235;SDS011;8734;59.272;17.780;2023-06-22T12:34:44;4.90;;;2.15;;
17235;SDS011;8734;59.272;17.780;2023-06-22T12:37:12;2.33;;;1.45;;
17235;SDS011;8734;59.272;17.780;2023-06-22T12:39:41;4.72;;;2.38;;
17235;SDS011;8734;59.272;17.780;2023-06-22T12:42:09;3.47;;;1.80;;
17235;SDS011;8734;59.272;17.780;2023-06-22T12:44:38;6.40;;;2.38;;
17235;SDS011;8734;59.272;17.780;2023-06-22T12:47:07;3.17;;;2.13;;
17235;SDS011;8734;59.272;17.780;2023-06-22T12:49:36;4.03;;;2.20;;
17235;SDS011;8734;59.272;17.780;2023-06-22T12:52:09;12.18;;;2.20;;
17235;SDS011;8734;59.272;17.780;2023-06-22T12:54:38;4.60;;;2.30;;
17235;SDS011;8734;59.272;17.780;2023-06-22T12:57:20;6.28;;;1.88;;
17235;SDS011;8734;59.272;17.780;2023-06-22T12:59:49;2.63;;;1.90;;
17235;SDS011;8734;59.272;17.780;2023-06-22T13:02:18;5.22;;;2.15;;
17235;SDS011;8734;59.272;17.780;2023-06-22T13:04:46;3.03;;;2.20;;
17235;SDS011;8734;59.272;17.780;2023-06-22T13:07:16;7.28;;;2.10;;
17235;SDS011;8734;59.272;17.780;2023-06-22T13:09:49;7.35;;;2.30;;
17235;SDS011;8734;59.272;17.780;2023-06-22T13:12:19;5.40;;;2.35;;
17235;SDS011;8734;59.272;17.780;2023-06-22T13:14:48;7.20;;;2.17;;
17235;SDS011;8734;59.272;17.780;2023-06-22T13:17:16;4.93;;;1.80;;
17235;SDS011;8734;59.272;17.780;2023-06-22T13:19:45;4.82;;;2.10;;
17235;SDS011;8734;59.272;17.780;2023-06-22T13:22:28;4.75;;;2.38;;
17235;SDS011;8734;59.272;17.780;2023-06-22T13:24:58;9.15;;;2.10;;
17235;SDS011;8734;59.272;17.780;2023-06-22T13:27:26;6.63;;;2.97;;
17235;SDS011;8734;59.272;17.780;2023-06-22T13:29:55;4.63;;;2.10;;
17235;SDS011;8734;59.272;17.780;2023-06-22T13:32:23;4.18;;;2.20;;
17235;SDS011;8734;59.272;17.780;2023-06-22T13:34:52;2.75;;;1.85;;
17235;SDS011;8734;59.272;17.780;2023-06-22T13:37:21;5.32;;;2.38;;
17235;SDS011;8734;59.272;17.780;2023-06-22T13:39:51;3.88;;;2.10;;
17235;SDS011;8734;59.272;17.780;2023-06-22T13:42:19;5.03;;;2.22;;
17235;SDS011;8734;59.272;17.780;2023-06-22T13:44:48;3.47;;;2.03;;
17235;SDS011;8734;59.272;17.780;2023-06-22T13:47:16;3.88;;;2.67;;
17235;SDS011;8734;59.272;17.780;2023-06-22T13:49:45;2.75;;;1.80;;
17235;SDS011;8734;59.272;17.780;2023-06-22T13:52:13;3.92;;;2.30;;
17235;SDS011;8734;59.272;17.780;2023-06-22T13:54:41;5.68;;;2.08;;
17235;SDS011;8734;59.272;17.780;2023-06-22T13:57:11;6.57;;;2.33;;
17235;SDS011;8734;59.272;17.780;2023-06-22T13:59:39;6.22;;;2.10;;
17235;SDS011;8734;59.272;17.780;2023-06-22T14:02:07;3.70;;;1.98;;
17235;SDS011;8734;59.272;17.780;2023-06-22T14:04:36;4.45;;;2.15;;
17235;SDS011;8734;59.272;17.780;2023-06-22T14:07:04;6.78;;;2.13;;
17235;SDS011;8734;59.272;17.780;2023-06-22T14:09:33;9.00;;;2.30;;
17235;SDS011;8734;59.272;17.780;2023-06-22T14:12:05;6.93;;;1.95;;
17235;SDS011;8734;59.272;17.780;2023-06-22T14:14:35;3.92;;;2.45;;
17235;SDS011;8734;59.272;17.780;2023-06-22T14:17:04;4.65;;;2.45;;
17235;SDS011;8734;59.272;17.780;2023-06-22T14:19:32;4.60;;;2.50;;
17235;SDS011;8734;59.272;17.780;2023-06-22T14:22:01;5.38;;;2.28;;
17235;SDS011;8734;59.272;17.780;2023-06-22T14:24:29;6.65;;;2.15;;
17235;SDS011;8734;59.272;17.780;2023-06-22T14:26:57;12.40;;;2.17;;
17235;SDS011;8734;59.272;17.780;2023-06-22T14:29:29;4.05;;;1.70;;
17235;SDS011;8734;59.272;17.780;2023-06-22T14:31:58;5.72;;;2.50;;
17235;SDS011;8734;59.272;17.780;2023-06-22T14:34:27;6.82;;;2.13;;
17235;SDS011;8734;59.272;17.780;2023-06-22T14:36:55;5.15;;;2.30;;
17235;SDS011;8734;59.272;17.780;2023-06-22T14:39:23;3.55;;;2.20;;
17235;SDS011;8734;59.272;17.780;2023-06-22T14:41:51;3.20;;;1.77;;
17235;SDS011;8734;59.272;17.780;2023-06-22T14:44:20;2.85;;;2.15;;
17235;SDS011;8734;59.272;17.780;2023-06-22T14:46:48;4.03;;;2.40;;
17235;SDS011;8734;59.272;17.780;2023-06-22T14:49:18;3.45;;;2.13;;
17235;SDS011;8734;59.272;17.780;2023-06-22T14:51:48;6.05;;;2.38;;
17235;SDS011;8734;59.272;17.780;2023-06-22T14:54:16;5.40;;;2.30;;
17235;SDS011;8734;59.272;17.780;2023-06-22T14:56:44;2.70;;;1.73;;